Time;durP1;ratioP1;P1;durP2;ratioP2;P2;SDS_P1;SDS_P2;PMS_P1;PMS_P2;Temp;Humidity;BMP_temperature;BMP_pressure;BME280_temperature;BME280_humidity;BME280_pressure;Samples;Min_cycle;Max_cycle;Signal;HPM_P1;HPM_P2
2022/02/28 05:01:22;;;;;;;13.07;11.57;;;1.10;99.90;;;;;;5504640;23;20571;-66
2022/02/28 05:03:48;;;;;;;11.60;10.40;;;1.00;99.90;;;;;;4956903;29;20803;-67
2022/02/28 05:06:15;;;;;;;13.60;10.80;;;1.00;99.90;;;;;;4956273;28;20459;-68
2022/02/28 05:08:42;;;;;;;12.23;10.87;;;0.90;99.90;;;;;;4955934;29;20792;-68
2022/02/28 05:11:08;;;;;;;11.70;10.47;;;1.00;99.90;;;;;;4956354;29;20485;-67
2022/02/28 05:13:35;;;;;;;13.50;11.37;;;0.90;99.90;;;;;;4956397;28;20457;-67
2022/02/28 05:16:02;;;;;;;12.40;11.10;;;0.90;99.90;;;;;;4959930;29;20992;-67
2022/02/28 05:18:30;;;;;;;12.30;10.10;;;1.00;99.90;;;;;;4960358;29;20461;-67
2022/02/28 05:20:57;;;;;;;12.50;10.30;;;1.00;99.90;;;;;;4960301;29;20476;-66
2022/02/28 05:23:23;;;;;;;15.77;11.20;;;1.00;99.90;;;;;;4960038;29;20937;-67
2022/02/28 05:25:50;;;;;;;11.03;9.97;;;1.00;99.90;;;;;;4960043;28;20458;-68
2022/02/28 05:28:17;;;;;;;15.40;12.40;;;1.00;99.90;;;;;;4960217;28;20825;-67
2022/02/28 05:30:47;;;;;;;16.87;10.27;;;1.10;99.90;;;;;;4959866;28;20486;-67
2022/02/28 05:33:15;;;;;;;15.07;12.67;;;1.10;99.90;;;;;;4962022;29;20458;-68
2022/02/28 05:35:43;;;;;;;12.30;10.50;;;1.10;99.90;;;;;;4959955;29;20497;-68
2022/02/28 05:38:10;;;;;;;11.97;10.77;;;1.10;99.90;;;;;;4959802;28;20455;-67
2022/02/28 05:40:38;;;;;;;13.83;12.40;;;1.00;99.90;;;;;;4960117;28;20474;-67
2022/02/28 05:43:05;;;;;;;12.47;11.20;;;1.00;99.90;;;;;;4959608;29;20460;-66
2022/02/28 05:45:35;;;;;;;13.97;11.57;;;1.00;99.90;;;;;;4959927;29;20837;-67
2022/02/28 05:48:03;;;;;;;12.77;10.10;;;1.00;99.90;;;;;;4960721;29;20550;-65
2022/02/28 05:50:30;;;;;;;12.50;10.90;;;1.00;99.90;;;;;;4959125;29;20497;-66
2022/02/28 05:52:58;;;;;;;12.83;11.60;;;1.00;99.90;;;;;;4959385;29;20456;-66
2022/02/28 05:55:24;;;;;;;14.07;12.57;;;1.00;99.90;;;;;;4959501;29;20455;-65
2022/02/28 05:57:51;;;;;;;12.60;11.30;;;1.00;99.90;;;;;;4959379;28;20494;-66
2022/02/28 06:00:18;;;;;;;13.33;12.00;;;0.90;99.90;;;;;;4959670;28;20458;-66
2022/02/28 06:02:45;;;;;;;13.10;11.50;;;0.90;99.90;;;;;;4959096;29;20785;-67
2022/02/28 06:05:11;;;;;;;18.43;12.00;;;0.90;99.90;;;;;;4959297;28;20462;-67
2022/02/28 06:07:38;;;;;;;15.77;12.50;;;0.90;99.90;;;;;;4959595;29;20466;-66
2022/02/28 06:10:07;;;;;;;14.03;12.60;;;0.90;99.90;;;;;;4959174;28;20997;-67
2022/02/28 06:12:33;;;;;;;14.73;12.47;;;0.90;99.90;;;;;;4958852;29;20476;-66
2022/02/28 06:15:00;;;;;;;15.57;13.07;;;0.90;99.90;;;;;;4959198;28;20459;-67
2022/02/28 06:17:27;;;;;;;15.53;13.23;;;0.90;99.90;;;;;;4959325;29;20460;-65
2022/02/28 06:19:53;;;;;;;14.43;12.90;;;0.80;99.90;;;;;;4959788;29;20457;-68
2022/02/28 06:22:21;;;;;;;18.70;13.20;;;0.80;99.90;;;;;;4958786;29;21009;-66
2022/02/28 06:24:48;;;;;;;13.77;12.37;;;0.80;99.90;;;;;;4959072;29;20464;-66
2022/02/28 06:27:16;;;;;;;14.20;12.20;;;0.80;99.90;;;;;;4958029;28;20457;-66
2022/02/28 06:29:43;;;;;;;13.23;11.90;;;0.80;99.90;;;;;;4958875;29;20481;-66
2022/02/28 06:32:10;;;;;;;13.17;11.77;;;0.70;99.90;;;;;;4958910;29;20485;-66
2022/02/28 06:34:37;;;;;;;13.73;12.43;;;0.60;99.90;;;;;;4959507;29;20456;-66
2022/02/28 06:37:04;;;;;;;13.83;12.43;;;0.60;99.90;;;;;;4959145;29;20827;-66
2022/02/28 06:39:31;;;;;;;14.00;12.70;;;0.60;99.90;;;;;;4959111;29;20814;-66
2022/02/28 06:41:57;;;;;;;13.00;11.80;;;0.60;99.90;;;;;;4959290;29;20558;-67
2022/02/28 06:44:25;;;;;;;13.87;12.20;;;0.70;99.90;;;;;;4959032;29;20516;-66
2022/02/28 06:46:52;;;;;;;13.67;12.37;;;0.70;99.90;;;;;;4958361;29;20940;-67
2022/02/28 06:49:19;;;;;;;13.50;12.07;;;0.80;99.90;;;;;;4958802;29;20458;-67
2022/02/28 06:51:46;;;;;;;16.47;12.70;;;0.90;99.90;;;;;;4958851;29;20485;-66
2022/02/28 06:54:12;;;;;;;15.37;13.20;;;1.00;99.90;;;;;;4959207;28;20463;-66
2022/02/28 06:56:39;;;;;;;16.10;14.37;;;1.10;99.90;;;;;;4958664;29;20952;-67
2022/02/28 06:59:06;;;;;;;14.83;13.40;;;1.10;99.90;;;;;;4959249;28;20463;-67
2022/02/28 07:01:36;;;;;;;14.37;12.97;;;1.20;99.90;;;;;;4958894;28;20477;-66
2022/02/28 07:04:03;;;;;;;13.30;11.90;;;1.30;99.90;;;;;;4965091;28;20459;-66
2022/02/28 07:06:29;;;;;;;15.90;12.50;;;1.30;99.90;;;;;;4960095;29;20903;-69
2022/02/28 07:08:57;;;;;;;14.77;12.00;;;1.40;99.90;;;;;;4958956;29;20459;-69
2022/02/28 07:11:23;;;;;;;12.37;10.97;;;2.00;99.90;;;;;;4958491;28;20508;-70
2022/02/28 07:13:51;;;;;;;12.40;10.60;;;2.90;99.90;;;;;;4958192;28;20465;-68
2022/02/28 07:16:18;;;;;;;11.17;9.53;;;4.00;99.90;;;;;;4957864;28;20461;-69
2022/02/28 07:18:46;;;;;;;11.83;10.37;;;5.20;99.90;;;;;;4958166;28;20454;-69
2022/02/28 07:21:12;;;;;;;11.20;9.13;;;6.10;99.90;;;;;;4958693;29;20494;-69
2022/02/28 07:23:39;;;;;;;11.97;10.10;;;7.30;97.90;;;;;;4958041;28;20464;-68
2022/02/28 07:26:06;;;;;;;11.60;9.37;;;8.30;94.00;;;;;;4958354;29;20463;-68
2022/02/28 07:28:33;;;;;;;10.20;9.30;;;9.40;90.50;;;;;;4958014;28;20452;-68
2022/02/28 07:30:59;;;;;;;12.47;10.00;;;10.10;85.30;;;;;;4957973;28;21022;-68
2022/02/28 07:33:26;;;;;;;10.50;9.40;;;11.00;80.50;;;;;;4957577;29;20464;-69
2022/02/28 07:35:54;;;;;;;11.37;10.27;;;11.90;75.10;;;;;;4957302;28;20456;-69
2022/02/28 07:38:21;;;;;;;12.53;11.37;;;12.60;70.40;;;;;;4957564;28;20459;-70
2022/02/28 07:40:48;;;;;;;12.60;11.40;;;12.70;66.10;;;;;;4957460;29;20472;-68
2022/02/28 07:43:14;;;;;;;11.10;10.00;;;12.80;63.40;;;;;;4957199;28;20459;-68
2022/02/28 07:45:41;;;;;;;11.83;10.83;;;12.70;62.30;;;;;;4957711;29;20969;-69
2022/02/28 07:48:08;;;;;;;12.10;10.90;;;12.60;63.30;;;;;;4957194;29;20800;-69
2022/02/28 07:50:35;;;;;;;12.10;11.00;;;12.50;61.50;;;;;;4957126;28;20850;-69
2022/02/28 07:53:03;;;;;;;12.20;10.97;;;13.00;60.70;;;;;;4957324;28;20459;-68
2022/02/28 07:55:30;;;;;;;12.40;11.30;;;13.40;60.00;;;;;;4957836;29;20463;-69
2022/02/28 07:57:56;;;;;;;13.30;12.10;;;13.80;59.40;;;;;;4958691;29;20835;-69
2022/02/28 08:00:23;;;;;;;12.33;11.13;;;13.80;59.00;;;;;;4956962;28;20459;-68
2022/02/28 08:02:52;;;;;;;13.63;12.37;;;14.10;58.10;;;;;;4957096;29;20440;-68
2022/02/28 08:05:18;;;;;;;12.57;11.27;;;14.50;57.40;;;;;;4957032;28;20459;-68
2022/02/28 08:07:46;;;;;;;13.10;11.93;;;14.80;56.80;;;;;;4956757;29;20797;-68
2022/02/28 08:10:14;;;;;;;12.40;11.20;;;15.20;55.90;;;;;;4956441;28;20556;-68
2022/02/28 08:12:41;;;;;;;14.20;12.90;;;15.70;55.80;;;;;;4956334;29;20491;-68
2022/02/28 08:15:08;;;;;;;13.47;12.27;;;16.20;52.60;;;;;;4956691;29;20455;-68
2022/02/28 08:17:35;;;;;;;15.10;13.70;;;16.30;52.30;;;;;;4956498;28;20467;-68
2022/02/28 08:20:02;;;;;;;14.30;12.80;;;16.60;51.40;;;;;;4956355;29;20935;-68
2022/02/28 08:22:29;;;;;;;15.77;13.20;;;17.10;50.20;;;;;;4956139;29;21017;-68
2022/02/28 08:24:58;;;;;;;14.00;12.80;;;16.80;50.50;;;;;;4956010;29;20973;-68
2022/02/28 08:27:26;;;;;;;13.90;12.50;;;17.10;49.60;;;;;;4956338;29;20488;-68
2022/02/28 08:29:53;;;;;;;14.47;13.00;;;16.70;50.50;;;;;;4956049;29;20455;-68
2022/02/28 08:32:20;;;;;;;13.63;12.30;;;16.10;50.90;;;;;;4956169;28;20484;-68
2022/02/28 08:34:47;;;;;;;13.80;12.33;;;16.70;50.60;;;;;;4956462;29;20452;-68
2022/02/28 08:37:14;;;;;;;13.93;12.57;;;17.00;49.50;;;;;;4956576;29;20807;-68
2022/02/28 08:39:40;;;;;;;15.47;14.00;;;17.60;48.10;;;;;;4956041;29;20463;-68
2022/02/28 08:42:07;;;;;;;15.20;13.70;;;17.50;48.50;;;;;;4955579;29;20479;-67
2022/02/28 08:44:35;;;;;;;13.47;12.17;;;17.10;47.30;;;;;;4956045;29;20464;-68
2022/02/28 08:47:02;;;;;;;13.67;12.47;;;17.10;47.50;;;;;;4955677;29;20952;-68
2022/02/28 08:49:29;;;;;;;13.60;12.30;;;17.20;48.90;;;;;;4955688;28;20459;-68
2022/02/28 08:51:55;;;;;;;13.90;12.47;;;17.00;48.60;;;;;;4955661;29;20511;-68
2022/02/28 08:54:23;;;;;;;14.20;12.73;;;17.60;47.50;;;;;;4955556;29;20919;-68
2022/02/28 08:56:50;;;;;;;14.00;12.70;;;17.80;47.20;;;;;;4955655;29;20943;-68
2022/02/28 08:59:17;;;;;;;14.33;12.73;;;17.40;48.20;;;;;;4955869;28;20456;-68
2022/02/28 09:01:45;;;;;;;13.20;12.00;;;17.40;48.40;;;;;;4955484;29;20542;-68
2022/02/28 09:04:12;;;;;;;14.00;12.60;;;18.00;47.90;;;;;;4955927;29;20460;-69
2022/02/28 09:06:38;;;;;;;13.97;12.60;;;17.70;48.10;;;;;;4955790;29;20459;-69
2022/02/28 09:09:05;;;;;;;14.50;13.00;;;17.60;48.10;;;;;;4955761;29;20463;-68
2022/02/28 09:11:32;;;;;;;13.10;11.80;;;18.30;47.90;;;;;;4956115;29;20495;-68
2022/02/28 09:13:59;;;;;;;14.00;12.70;;;18.50;47.90;;;;;;4955497;28;21022;-69
2022/02/28 09:16:26;;;;;;;14.93;13.53;;;18.40;47.90;;;;;;4956062;28;20456;-68
2022/02/28 09:18:54;;;;;;;15.17;13.77;;;17.40;48.20;;;;;;4955518;29;20460;-68
2022/02/28 09:21:20;;;;;;;16.50;12.80;;;17.90;48.00;;;;;;4955585;29;20552;-68
2022/02/28 09:23:47;;;;;;;13.43;12.20;;;17.90;47.20;;;;;;4955604;29;20459;-68
2022/02/28 09:26:14;;;;;;;15.40;14.00;;;18.10;46.40;;;;;;4955624;29;20463;-68
2022/02/28 09:28:40;;;;;;;15.00;12.40;;;18.10;47.60;;;;;;4955297;29;20511;-68
2022/02/28 09:31:07;;;;;;;14.03;12.67;;;18.60;46.10;;;;;;4955261;28;20855;-67
2022/02/28 09:33:34;;;;;;;15.67;14.27;;;18.70;45.60;;;;;;4955425;29;20515;-68
2022/02/28 09:36:04;;;;;;;15.77;13.70;;;19.00;44.80;;;;;;4955474;29;20463;-68
2022/02/28 09:38:30;;;;;;;14.07;12.73;;;19.00;44.40;;;;;;4955890;28;20456;-68
2022/02/28 09:40:58;;;;;;;14.00;12.80;;;19.00;44.80;;;;;;4955350;28;20478;-68
2022/02/28 09:43:25;;;;;;;15.40;13.70;;;18.60;45.40;;;;;;4955414;28;20464;-68
2022/02/28 09:45:54;;;;;;;14.40;13.10;;;18.50;47.10;;;;;;4955226;29;20970;-68
2022/02/28 09:48:21;;;;;;;14.47;13.17;;;18.20;47.00;;;;;;4955287;29;20467;-68
2022/02/28 09:50:48;;;;;;;14.67;13.23;;;19.30;45.20;;;;;;4955122;28;20487;-68
2022/02/28 09:53:16;;;;;;;13.80;12.60;;;19.00;44.30;;;;;;4955413;29;20535;-68
2022/02/28 09:55:43;;;;;;;13.13;12.00;;;19.50;45.00;;;;;;4955343;28;20464;-68
2022/02/28 09:58:10;;;;;;;13.87;12.40;;;19.40;45.60;;;;;;4955201;29;20459;-69
2022/02/28 10:00:41;;;;;;;13.93;12.63;;;20.10;43.70;;;;;;4955351;28;20483;-68
2022/02/28 10:03:08;;;;;;;15.00;13.70;;;20.00;43.40;;;;;;4958934;28;20934;-68
2022/02/28 10:05:34;;;;;;;12.70;11.50;;;20.80;42.30;;;;;;4959099;29;20456;-68
2022/02/28 10:08:06;;;;;;;13.27;12.07;;;20.10;42.90;;;;;;4959039;28;20466;-68
2022/02/28 10:10:35;;;;;;;14.03;12.80;;;20.00;43.20;;;;;;4958709;29;20479;-68
2022/02/28 10:13:02;;;;;;;13.97;12.67;;;20.60;41.10;;;;;;4958905;28;20455;-68
2022/02/28 10:15:29;;;;;;;14.33;13.03;;;21.30;42.20;;;;;;4958884;29;20451;-68
2022/02/28 10:17:59;;;;;;;13.50;12.10;;;21.20;41.50;;;;;;4958712;29;20468;-68
2022/02/28 10:20:27;;;;;;;12.50;11.40;;;21.60;41.20;;;;;;4958290;28;20959;-69
2022/02/28 10:22:56;;;;;;;13.67;12.50;;;21.10;38.60;;;;;;4958252;29;20962;-68
2022/02/28 10:25:27;;;;;;;13.57;12.30;;;20.60;38.60;;;;;;4958639;29;20451;-69
2022/02/28 10:28:19;;;;;;;13.93;12.10;;;20.50;39.30;;;;;;4958224;28;20939;-69
2022/02/28 10:30:55;;;;;;;14.00;12.70;;;20.60;39.30;;;;;;4958961;29;20490;-67
2022/02/28 10:33:28;;;;;;;13.77;12.57;;;20.50;39.50;;;;;;4958400;29;20451;-68
2022/02/28 10:36:00;;;;;;;13.17;11.87;;;20.40;38.90;;;;;;4958406;29;20440;-69
2022/02/28 10:38:27;;;;;;;12.80;11.70;;;20.80;39.50;;;;;;4958413;29;20451;-69
2022/02/28 10:40:54;;;;;;;13.47;12.20;;;21.00;40.40;;;;;;4958732;28;20515;-69
2022/02/28 10:43:29;;;;;;;13.87;12.67;;;20.70;37.70;;;;;;4958114;28;20456;-69
2022/02/28 10:45:56;;;;;;;14.30;12.90;;;20.40;40.70;;;;;;4957906;29;20525;-69
2022/02/28 10:48:24;;;;;;;14.53;13.20;;;20.40;38.70;;;;;;4957699;28;20464;-69
2022/02/28 10:50:51;;;;;;;12.47;11.10;;;20.50;38.80;;;;;;4957493;29;20483;-69
2022/02/28 10:53:20;;;;;;;13.73;12.40;;;19.80;39.50;;;;;;4957548;28;20567;-69
2022/02/28 10:55:49;;;;;;;12.40;11.30;;;19.20;39.50;;;;;;4957761;28;20467;-69
2022/02/28 10:58:18;;;;;;;13.20;12.00;;;19.50;39.50;;;;;;4957597;29;20564;-69
2022/02/28 11:00:57;;;;;;;12.10;11.00;;;19.50;40.00;;;;;;4957515;29;20483;-69
2022/02/28 11:03:25;;;;;;;12.67;11.37;;;19.20;39.30;;;;;;4957368;29;20444;-68
2022/02/28 11:05:54;;;;;;;12.10;11.00;;;18.90;39.80;;;;;;4957504;29;20456;-68
2022/02/28 11:08:21;;;;;;;11.67;10.67;;;18.90;40.30;;;;;;4957493;29;20463;-68
2022/02/28 11:10:48;;;;;;;12.50;11.30;;;18.80;40.70;;;;;;4957691;29;20488;-69
2022/02/28 11:13:16;;;;;;;13.77;12.57;;;18.80;40.00;;;;;;4957300;28;20460;-68
2022/02/28 11:15:43;;;;;;;13.23;11.97;;;18.30;40.50;;;;;;4957608;28;20460;-69
2022/02/28 11:18:15;;;;;;;14.10;12.27;;;17.60;40.20;;;;;;4957308;29;20467;-68
2022/02/28 11:20:42;;;;;;;12.27;11.07;;;17.00;42.00;;;;;;4957301;29;20534;-68
2022/02/28 11:23:09;;;;;;;12.10;11.00;;;16.50;42.60;;;;;;4957294;29;20507;-69
2022/02/28 11:25:36;;;;;;;13.20;11.90;;;15.70;43.00;;;;;;4957315;28;20466;-68
2022/02/28 11:28:03;;;;;;;13.50;12.03;;;15.50;44.40;;;;;;4957039;29;20467;-68
2022/02/28 11:30:31;;;;;;;14.13;11.40;;;15.00;43.50;;;;;;4957423;29;20451;-68
2022/02/28 11:33:01;;;;;;;12.20;11.00;;;14.40;44.50;;;;;;4956885;29;20994;-68
2022/02/28 11:35:46;;;;;;;12.77;11.40;;;14.20;47.00;;;;;;4957352;29;20444;-69
2022/02/28 11:38:28;;;;;;;12.00;10.80;;;13.90;49.20;;;;;;4957904;29;20447;-68
2022/02/28 11:40:57;;;;;;;12.13;11.03;;;13.90;46.20;;;;;;4957177;29;20487;-68
2022/02/28 11:43:25;;;;;;;13.10;11.80;;;13.90;46.80;;;;;;4956973;28;20462;-68
2022/02/28 11:45:53;;;;;;;13.03;11.70;;;13.90;47.80;;;;;;4956861;28;20467;-68
2022/02/28 11:48:35;;;;;;;13.57;12.17;;;13.60;47.50;;;;;;4956863;29;20455;-69
2022/02/28 11:51:05;;;;;;;14.67;11.60;;;13.50;48.80;;;;;;4956588;29;21005;-69
2022/02/28 11:53:38;;;;;;;12.47;11.27;;;13.20;48.50;;;;;;4956654;29;20455;-68
2022/02/28 11:56:56;;;;;;;12.00;10.80;;;13.20;47.60;;;;;;4956771;29;20484;-68
2022/02/28 11:59:38;;;;;;;11.93;10.73;;;13.10;47.20;;;;;;4956661;28;20459;-68
2022/02/28 12:02:08;;;;;;;10.73;9.70;;;13.10;48.40;;;;;;4956249;29;20490;-68
2022/02/28 12:04:40;;;;;;;12.30;11.00;;;13.10;48.70;;;;;;4956610;28;20961;-68
2022/02/28 12:07:09;;;;;;;12.53;10.80;;;13.40;48.40;;;;;;4956619;29;20444;-68
2022/02/28 12:09:42;;;;;;;12.70;10.90;;;13.70;49.70;;;;;;4956279;29;20463;-68
2022/02/28 12:12:18;;;;;;;12.20;10.40;;;13.70;48.30;;;;;;4955998;29;20483;-68
2022/02/28 12:15:11;;;;;;;11.73;10.53;;;13.70;45.80;;;;;;4956251;28;20955;-68
2022/02/28 12:17:55;;;;;;;11.77;10.67;;;13.70;45.90;;;;;;4956266;29;20463;-68
2022/02/28 12:20:26;;;;;;;11.00;9.60;;;13.60;45.00;;;;;;4956330;29;20475;-68
2022/02/28 12:23:28;;;;;;;11.77;10.60;;;13.50;45.70;;;;;;4956317;28;20436;-68
2022/02/28 12:26:16;;;;;;;12.13;10.93;;;13.60;47.40;;;;;;4955936;29;20439;-68
2022/02/28 12:28:52;;;;;;;11.13;10.07;;;13.80;46.70;;;;;;4950285;28;20781;-68
2022/02/28 12:31:35;;;;;;;12.13;10.83;;;13.90;46.10;;;;;;4955949;29;20479;-68
2022/02/28 12:34:12;;;;;;;10.97;9.83;;;14.10;46.20;;;;;;4952928;28;20459;-68
2022/02/28 12:36:44;;;;;;;12.10;10.90;;;14.20;46.90;;;;;;4956037;28;20460;-68
2022/02/28 12:39:14;;;;;;;13.10;11.33;;;14.10;44.50;;;;;;4956840;29;20448;-68
2022/02/28 12:41:43;;;;;;;14.70;12.30;;;14.10;45.60;;;;;;4955703;29;20975;-68
2022/02/28 12:44:13;;;;;;;11.97;10.83;;;13.90;46.80;;;;;;4956779;29;20460;-68
2022/02/28 12:46:44;;;;;;;12.70;11.33;;;13.50;47.10;;;;;;4956298;28;20491;-68
2022/02/28 12:49:14;;;;;;;13.23;10.57;;;13.60;46.10;;;;;;4955618;29;20908;-68
2022/02/28 12:51:41;;;;;;;13.80;11.60;;;13.50;45.80;;;;;;4955859;29;20480;-68
2022/02/28 12:54:11;;;;;;;12.30;10.93;;;13.80;48.40;;;;;;4955667;28;20471;-68
2022/02/28 12:56:42;;;;;;;13.77;11.77;;;13.80;45.20;;;;;;4955755;28;20459;-69
2022/02/28 12:59:09;;;;;;;14.37;11.77;;;13.30;46.90;;;;;;4955344;29;20460;-68
2022/02/28 13:01:36;;;;;;;13.57;12.00;;;13.30;47.20;;;;;;4955330;29;20488;-68
2022/02/28 13:04:06;;;;;;;12.47;11.20;;;13.10;47.30;;;;;;4955306;28;20842;-68
2022/02/28 13:06:35;;;;;;;12.70;11.27;;;13.20;47.80;;;;;;4956257;29;20416;-68
2022/02/28 13:09:06;;;;;;;11.20;10.20;;;13.50;48.00;;;;;;4956073;28;20475;-68
2022/02/28 13:11:34;;;;;;;11.90;10.70;;;13.40;45.50;;;;;;4959565;29;20491;-68
2022/02/28 13:14:03;;;;;;;12.30;11.00;;;13.20;45.20;;;;;;4956223;29;20464;-68
2022/02/28 13:16:32;;;;;;;11.83;10.63;;;13.20;46.40;;;;;;4955550;28;20464;-68
2022/02/28 13:19:05;;;;;;;12.33;11.13;;;12.90;46.70;;;;;;4955305;29;20959;-68
2022/02/28 13:21:33;;;;;;;12.03;10.50;;;12.80;47.50;;;;;;4955870;29;20476;-67
2022/02/28 13:24:02;;;;;;;10.30;9.30;;;13.30;55.70;;;;;;4955931;29;20443;-67
2022/02/28 13:26:29;;;;;;;10.30;9.20;;;13.50;51.30;;;;;;4956266;28;20455;-67
2022/02/28 13:28:56;;;;;;;12.13;10.80;;;13.70;59.00;;;;;;4955957;28;20456;-67
2022/02/28 13:31:23;;;;;;;12.50;10.97;;;14.00;52.10;;;;;;4955608;29;20483;-68
2022/02/28 13:33:51;;;;;;;11.63;10.43;;;13.70;47.20;;;;;;4955235;28;20463;-68
2022/02/28 13:36:19;;;;;;;13.63;11.00;;;13.20;46.30;;;;;;4958453;28;20463;-68
2022/02/28 13:38:46;;;;;;;11.47;10.27;;;13.30;48.30;;;;;;4959468;29;20459;-69
2022/02/28 13:41:12;;;;;;;12.13;11.03;;;13.30;48.00;;;;;;4959358;28;20480;-69
2022/02/28 13:43:42;;;;;;;12.97;11.67;;;13.40;48.90;;;;;;4959468;29;20452;-69
2022/02/28 13:46:13;;;;;;;12.73;11.47;;;13.50;47.50;;;;;;4959269;28;20459;-69
2022/02/28 13:48:40;;;;;;;13.60;11.60;;;13.50;48.40;;;;;;4959448;29;20538;-68
2022/02/28 13:51:11;;;;;;;12.77;11.10;;;13.70;46.80;;;;;;4959193;29;20475;-67
2022/02/28 13:53:47;;;;;;;11.23;10.03;;;13.70;46.70;;;;;;4959088;29;20496;-68
2022/02/28 13:56:28;;;;;;;12.73;11.23;;;13.70;46.00;;;;;;4959738;29;20444;-68
2022/02/28 13:59:06;;;;;;;12.30;11.10;;;13.40;46.00;;;;;;4959044;29;20444;-68
2022/02/28 14:01:34;;;;;;;12.30;11.00;;;13.50;47.10;;;;;;4958707;29;20483;-71
2022/02/28 14:04:01;;;;;;;12.13;10.90;;;13.90;47.10;;;;;;4959309;29;20522;-69
2022/02/28 14:06:28;;;;;;;12.03;10.93;;;13.80;46.10;;;;;;4959546;28;20483;-69
2022/02/28 14:08:57;;;;;;;11.53;10.33;;;13.70;46.70;;;;;;4959102;29;20542;-68
2022/02/28 14:11:32;;;;;;;12.20;11.03;;;13.90;47.70;;;;;;4958699;29;20475;-69
2022/02/28 14:13:59;;;;;;;15.17;11.63;;;14.10;47.20;;;;;;4958731;29;20506;-69
2022/02/28 14:16:27;;;;;;;11.47;10.27;;;13.70;45.30;;;;;;4958724;29;20458;-69
2022/02/28 14:19:09;;;;;;;12.50;11.20;;;13.50;46.00;;;;;;4958828;29;20860;-69
2022/02/28 14:21:39;;;;;;;12.57;11.30;;;13.60;48.00;;;;;;4958510;29;20482;-69
2022/02/28 14:24:09;;;;;;;12.67;11.37;;;13.60;45.90;;;;;;4958594;29;20439;-68
2022/02/28 14:26:37;;;;;;;12.23;10.90;;;13.50;46.30;;;;;;4958733;28;20456;-68
2022/02/28 14:29:06;;;;;;;11.33;10.23;;;13.40;46.40;;;;;;4958718;29;20494;-68
2022/02/28 14:31:42;;;;;;;12.60;11.13;;;13.60;45.20;;;;;;4958538;28;20807;-69
2022/02/28 14:34:09;;;;;;;13.70;10.57;;;13.30;48.30;;;;;;4958629;29;20970;-69
2022/02/28 14:36:37;;;;;;;13.00;11.83;;;13.30;47.80;;;;;;4959558;28;20464;-69
2022/02/28 14:39:04;;;;;;;12.83;11.43;;;13.00;46.40;;;;;;4959161;28;20452;-69
2022/02/28 14:41:33;;;;;;;11.87;10.77;;;12.90;47.00;;;;;;4958657;28;20487;-69
2022/02/28 14:44:01;;;;;;;12.23;10.93;;;12.90;48.70;;;;;;4967164;29;20467;-67
2022/02/28 14:46:28;;;;;;;13.70;11.10;;;12.70;48.00;;;;;;4960628;28;20448;-67
2022/02/28 14:48:55;;;;;;;11.90;10.70;;;12.90;47.30;;;;;;4958245;28;20819;-66
2022/02/28 14:51:21;;;;;;;12.23;10.93;;;12.90;47.60;;;;;;4957977;28;21100;-66
2022/02/28 14:53:48;;;;;;;12.30;11.00;;;13.10;48.90;;;;;;4957808;29;20475;-64
2022/02/28 14:56:15;;;;;;;12.33;11.07;;;13.00;47.10;;;;;;4958175;29;20456;-69
2022/02/28 14:58:44;;;;;;;12.40;11.13;;;13.00;46.60;;;;;;4958200;29;20958;-68
2022/02/28 15:01:11;;;;;;;12.33;11.03;;;13.20;46.20;;;;;;4957910;28;20494;-68
2022/02/28 15:03:38;;;;;;;12.00;10.63;;;13.20;47.90;;;;;;4957651;29;20817;-67
2022/02/28 15:06:05;;;;;;;11.67;10.43;;;13.20;46.90;;;;;;4958086;28;20456;-67
2022/02/28 15:08:32;;;;;;;10.20;9.30;;;13.20;47.40;;;;;;4958202;29;20466;-68
2022/02/28 15:10:59;;;;;;;10.40;9.40;;;13.30;45.30;;;;;;4958233;28;20483;-68
2022/02/28 15:13:26;;;;;;;10.57;9.50;;;13.10;44.90;;;;;;4958454;28;20510;-68
2022/02/28 15:15:54;;;;;;;10.07;9.07;;;13.20;44.70;;;;;;4957929;28;20455;-68
2022/02/28 15:18:21;;;;;;;9.93;9.03;;;13.10;44.70;;;;;;4958535;28;20459;-67
2022/02/28 15:20:48;;;;;;;11.00;9.23;;;12.80;44.10;;;;;;4957956;28;20487;-67
2022/02/28 15:23:15;;;;;;;10.50;9.40;;;12.70;44.90;;;;;;4957731;28;20457;-68
2022/02/28 15:25:42;;;;;;;10.07;9.07;;;12.70;45.40;;;;;;4957979;28;20460;-66
2022/02/28 15:28:09;;;;;;;10.03;9.13;;;12.50;44.90;;;;;;4957652;28;20452;-66
2022/02/28 15:30:36;;;;;;;12.33;9.13;;;12.30;44.40;;;;;;4957711;28;20479;-66
2022/02/28 15:33:05;;;;;;;10.30;9.10;;;12.40;44.40;;;;;;4957536;28;20483;-68
2022/02/28 15:35:32;;;;;;;12.47;9.43;;;12.50;44.10;;;;;;4958179;28;20460;-66
2022/02/28 15:37:59;;;;;;;11.07;9.97;;;12.40;44.20;;;;;;4957553;28;20460;-67
2022/02/28 15:40:26;;;;;;;12.60;9.40;;;12.40;45.30;;;;;;4957470;28;20458;-66
2022/02/28 15:42:53;;;;;;;10.10;8.90;;;12.20;44.80;;;;;;4957611;28;20475;-66
2022/02/28 15:45:21;;;;;;;9.07;8.17;;;12.10;44.90;;;;;;4957522;28;20482;-66
2022/02/28 15:47:50;;;;;;;9.10;8.30;;;11.90;44.00;;;;;;4957517;28;20487;-68
2022/02/28 15:50:19;;;;;;;9.17;8.20;;;11.80;45.10;;;;;;4957155;28;20460;-68
2022/02/28 15:52:47;;;;;;;9.47;8.57;;;11.70;44.80;;;;;;4957266;28;20555;-66
2022/02/28 15:55:14;;;;;;;15.00;9.33;;;11.60;45.20;;;;;;4957149;28;20456;-66
2022/02/28 15:57:41;;;;;;;10.37;9.37;;;11.50;45.70;;;;;;4957002;28;20861;-66
2022/02/28 16:00:09;;;;;;;9.77;8.70;;;11.30;46.60;;;;;;4955589;28;20472;-68
2022/02/28 16:02:36;;;;;;;9.83;8.80;;;11.20;47.50;;;;;;4956873;28;20546;-66
2022/02/28 16:05:03;;;;;;;12.00;8.47;;;11.10;47.00;;;;;;4956867;28;20463;-66
2022/02/28 16:07:33;;;;;;;9.80;8.80;;;11.10;47.60;;;;;;4957200;28;20462;-67
2022/02/28 16:10:00;;;;;;;9.57;8.57;;;11.10;47.60;;;;;;4957060;28;20474;-68
2022/02/28 16:12:27;;;;;;;10.00;9.10;;;11.10;48.00;;;;;;4958572;28;20472;-67
2022/02/28 16:14:53;;;;;;;10.00;9.10;;;10.90;47.90;;;;;;4957600;28;20451;-67
2022/02/28 16:17:20;;;;;;;9.27;8.37;;;10.90;48.30;;;;;;4958182;28;20459;-67
2022/02/28 16:19:47;;;;;;;9.87;8.97;;;11.00;48.20;;;;;;4956792;28;20460;-66
2022/02/28 16:22:15;;;;;;;7.80;7.10;;;11.00;47.20;;;;;;4956692;28;20480;-67
2022/02/28 16:24:45;;;;;;;7.13;6.53;;;10.80;46.50;;;;;;4956418;28;20955;-67
2022/02/28 16:27:11;;;;;;;7.50;6.70;;;10.80;46.70;;;;;;4956763;28;20452;-67
2022/02/28 16:29:38;;;;;;;6.77;6.07;;;10.70;45.80;;;;;;4956785;28;20483;-68
2022/02/28 16:32:06;;;;;;;6.47;5.87;;;10.70;46.00;;;;;;4956720;28;20486;-67
2022/02/28 16:34:33;;;;;;;6.00;5.50;;;10.70;45.40;;;;;;4957096;28;20507;-68
2022/02/28 16:37:00;;;;;;;6.00;5.40;;;10.50;45.00;;;;;;4956878;28;20456;-68
2022/02/28 16:39:27;;;;;;;6.23;5.73;;;10.40;44.50;;;;;;4956884;28;20455;-68
2022/02/28 16:41:55;;;;;;;7.67;6.93;;;10.30;44.20;;;;;;4956922;28;20480;-67
2022/02/28 16:44:22;;;;;;;7.47;6.77;;;10.30;44.70;;;;;;4957098;28;20452;-67
2022/02/28 16:46:48;;;;;;;6.73;6.03;;;10.20;45.40;;;;;;4957103;28;20460;-67
2022/02/28 16:49:15;;;;;;;7.50;6.70;;;10.00;45.60;;;;;;4956723;28;20462;-68
2022/02/28 16:51:42;;;;;;;9.40;6.67;;;9.90;46.50;;;;;;4957391;28;20483;-67
2022/02/28 16:54:09;;;;;;;6.93;6.33;;;9.70;47.10;;;;;;4957862;28;20486;-68
2022/02/28 16:56:35;;;;;;;6.73;6.03;;;9.60;47.00;;;;;;4956643;28;20463;-68
2022/02/28 16:59:04;;;;;;;6.77;6.00;;;9.60;47.30;;;;;;4957268;28;20463;-68
2022/02/28 17:01:31;;;;;;;5.70;5.20;;;9.50;47.20;;;;;;4957071;28;20548;-68
2022/02/28 17:03:59;;;;;;;6.60;6.00;;;9.30;47.40;;;;;;4956930;28;20510;-68
2022/02/28 17:06:26;;;;;;;6.17;5.33;;;9.30;47.80;;;;;;4956134;28;20483;-68
2022/02/28 17:08:53;;;;;;;6.70;5.93;;;9.30;48.30;;;;;;4956040;28;20822;-68
2022/02/28 17:11:20;;;;;;;6.80;6.20;;;9.20;48.00;;;;;;4956231;28;20472;-67
2022/02/28 17:13:47;;;;;;;7.00;6.10;;;9.20;48.60;;;;;;4955672;28;20487;-68
2022/02/28 17:16:15;;;;;;;7.00;6.43;;;9.10;47.90;;;;;;4956110;28;20522;-68
2022/02/28 17:18:42;;;;;;;14.40;6.00;;;9.10;48.10;;;;;;4955923;28;20459;-67
2022/02/28 17:21:09;;;;;;;8.60;6.97;;;8.90;48.20;;;;;;4956750;28;20913;-68
2022/02/28 17:23:36;;;;;;;7.50;6.50;;;8.90;47.80;;;;;;4956722;28;20990;-69
2022/02/28 17:26:03;;;;;;;8.80;6.13;;;8.90;48.30;;;;;;4956731;28;20452;-68
2022/02/28 17:28:30;;;;;;;10.93;6.50;;;8.80;48.50;;;;;;4956501;28;20901;-69
2022/02/28 17:31:01;;;;;;;8.57;6.43;;;8.70;48.50;;;;;;4957011;28;20480;-68
2022/02/28 17:33:30;;;;;;;6.60;6.00;;;8.60;48.40;;;;;;4957164;28;20464;-69
2022/02/28 17:35:56;;;;;;;12.90;7.20;;;8.60;48.70;;;;;;4956933;28;20463;-69
2022/02/28 17:38:23;;;;;;;14.23;7.83;;;8.60;49.30;;;;;;4960113;28;20456;-69
2022/02/28 17:40:50;;;;;;;9.50;7.30;;;8.50;49.40;;;;;;4961095;28;20475;-69